METAR des aéroports

 

LFBA - AGEN (Lot-et-Garonne)
Mise à jour: 26/06/2022 19:00
couvert
couvert
 Vent NW
Vent: NW 15 km/h
Température: 17°C
Point de Rosée: 14°C
Humidité: 83%
Barometre: 1014 hPa
Nuage: couvert
Visibilité: 10 km
2022/06/26 17:00 LFBA 261700Z AUTO 31008KT 9999 OVC012 17/14 Q1014 TEMPO 4000 SHRA BKN010 FEW020CB BKN025TCU
LFKJ - AJACCIO (Corse-du-Sud)
Mise à jour: 26/06/2022 19:00
clair
clair
 Vent SSE
Vent: SSE 7 km/h
Température: 30°C
Humidex: 31°C
Point de Rosée: 19°C
Humidité: 52%
Barometre: 1010 hPa
Visibilité: supérieure à 10 km
2022/06/26 17:00 LFKJ 261700Z AUTO 16004KT 130V190 CAVOK 30/19 Q1010 TEMPO VRB15G32KT FEW040 FEW070CB BKN130
 
LFJR - ANGERS (Maine-et-Loire)
Mise à jour: 26/06/2022 19:00
clair
clair
 Vent SW
Vent: SW 13 km/h
Température: 22°C
Point de Rosée: 8°C
Humidité: 41%
Barometre: 1014 hPa
Visibilité: supérieure à 10 km
2022/06/26 17:00 LFJR 261700Z AUTO 22007KT 180V250 CAVOK 22/08 Q1014
LFLP - ANNECY (Haute-Savoie)
Mise à jour: 26/06/2022 19:00
clair
clair
 Vent W
Vent: W 9 km/h
Température: 26°C
Point de Rosée: 17°C
Humidité: 58%
Barometre: 1011 hPa
Visibilité: supérieure à 10 km
2022/06/26 17:00 LFLP 261700Z AUTO 28005KT 210V320 CAVOK 26/17 Q1011 TEMPO VRB15KT 2000 TSRA BKN012 BKN025CB
 
LFMV - AVIGNON (Vaucluse)
Mise à jour: 26/06/2022 19:00
clair
clair
 Vent S
Vent: S 28 km/h
Température: 32°C
Point de Rosée: 15°C
Humidité: 36%
Barometre: 1009 hPa
Visibilité: supérieure à 10 km
2022/06/26 17:00 LFMV 261700Z AUTO 18015KT CAVOK 32/15 Q1009 TEMPO 21015G25KT
LFOA - AVORD (Cher)
Mise à jour: 26/06/2022 19:00
faible pluie, orage
faible pluie, orage
 Vent ENE
Vent: ENE 11 km/h
Température: 16°C
Point de Rosée: 15°C
Humidité: 94%
Barometre: 1014 hPa
Nuage: orage
Visibilité: 10 km
2022/06/26 17:00 LFOA 261700Z AUTO 06006KT 9999 -RA FEW007/// OVC098/// ///CB 16/15 Q1014
 
LFSB - BALE - MULHOUSE (Haut-Rhin)
Mise à jour: 26/06/2022 19:00
nuages épars
nuages épars
 Vent N
Vent: N 19 km/h
Température: 25°C
Point de Rosée: 17°C
Humidité: 61%
Barometre: 1012 hPa
Nuage: nuages épars
Visibilité: 10 km
2022/06/26 17:00 LFSB 261700Z 36010KT 330V030 9999 FEW036 25/17 Q1012 NOSIG
LFKB - BASTIA (Haute-Corse)
Mise à jour: 26/06/2022 19:00
clair
clair
 Vent ESE
Vent: ESE 15 km/h
Température: 27°C
Humidex: 30°C
Point de Rosée: 23°C
Humidité: 79%
Barometre: 1011 hPa
Visibilité: supérieure à 10 km
2022/06/26 17:00 LFKB 261700Z AUTO 12008KT 090V150 CAVOK 27/23 Q1011 NOSIG
 
LFOB - BEAUVAIS (Oise)
Mise à jour: 26/06/2022 19:00
clair
clair
 Vent S
Vent: S 13 km/h
Température: 21°C
Point de Rosée: 8°C
Humidité: 43%
Barometre: 1014 hPa
Visibilité: supérieure à 10 km
2022/06/26 17:00 LFOB 261700Z AUTO 18007KT 140V200 CAVOK 21/08 Q1014 NOSIG
LFBE - BERGERAC (Dordogne)
Mise à jour: 26/06/2022 19:00
orage
orage
 Vent NNW
Vent: NNW 9 km/h
Température: 17°C
Point de Rosée: 15°C
Humidité: 88%
Barometre: 1014 hPa
Nuage: orage
Visibilité: 10 km
2022/06/26 17:00 LFBE 261700Z AUTO 34005KT 300V010 9999 BKN012/// OVC110/// ///TCU 17/15 Q1014 TEMPO 4000 SHRA
 
LFMU - BEZIERS (Hérault)
Mise à jour: 26/06/2022 19:00
couvert
couvert
 Vent S
Vent: S 9 km/h
Température: 26°C
Point de Rosée: 21°C
Humidité: 74%
Barometre: 1010 hPa
Nuage: couvert
Visibilité: 10 km
2022/06/26 17:00 LFMU 261700Z AUTO 17005KT 110V210 9999 BKN020 OVC026 26/21 Q1010 NOSIG
LFBZ - BIARRITZ (Pyrénées-Atlantiques)
Mise à jour: 26/06/2022 19:00
couvert
couvert
 Vent variable
Vent: variable 6 km/h
Température: 17°C
Point de Rosée: 12°C
Humidité: 73%
Barometre: 1015 hPa
Nuage: couvert
Visibilité: 10 km
2022/06/26 17:00 LFBZ 261700Z AUTO VRB03KT 9999 OVC025 17/12 Q1015 TEMPO 4000 -SHRA SCT015 BKN025TCU
 
LFBD - BORDEAUX (Gironde)
Mise à jour: 26/06/2022 19:00
couvert
couvert
 Vent WNW
Vent: WNW 6 km/h
Température: 19°C
Point de Rosée: 12°C
Humidité: 64%
Barometre: 1015 hPa
Nuage: couvert
Visibilité: 10 km
2022/06/26 17:00 LFBD 261700Z AUTO 30003KT 9999 FEW028 BKN048 OVC054 19/12 Q1015 NOSIG
LFSL - BRIVE (Correze)
Mise à jour: 26/06/2022 19:00
orage
orage
 Vent NNE
Vent: NNE 9 km/h
Température: 16°C
Point de Rosée: 14°C
Humidité: 88%
Barometre: 1013 hPa
Nuage: orage
Visibilité: 10 km
2022/06/26 17:00 LFSL 261700Z AUTO 02005KT 340V060 9999 SCT006/// BKN045/// OVC080/// ///CB 16/14 Q1013 TEMPO BKN002
 
LFRK - CAEN (Calvados)
Mise à jour: 26/06/2022 19:00
clair
clair
 Vent NNW
Vent: NNW 13 km/h
Température: 19°C
Point de Rosée: 9°C
Humidité: 52%
Barometre: 1013 hPa
Visibilité: supérieure à 10 km
2022/06/26 17:00 LFRK 261700Z AUTO 34007KT 310V010 CAVOK 19/09 Q1013 TEMPO 21015G25KT 4000 SHRA BKN040TCU
LFKC - CALVI (Haute-Corse)
Mise à jour: 26/06/2022 19:00
en partie nuageux
en partie nuageux
 Vent SE
Vent: SE 6 km/h
Température: 33°C
Point de Rosée: 15°C
Humidité: 34%
Barometre: 1010 hPa
Nuage: en partie nuageux
Visibilité: 10 km
2022/06/26 17:00 LFKC 261700Z AUTO 13003KT 070V190 9999 FEW100 SCT160 33/15 Q1010 BECMG 01010KT
 
LFMD - CANNES (Alpes-Maritimes)
Mise à jour: 26/06/2022 19:00
clair
clair
 Vent ENE
Vent: ENE 9 km/h
Température: 30°C
Humidex: 29°C
Point de Rosée: 15°C
Humidité: 40%
Barometre: 1011 hPa
Visibilité: supérieure à 10 km
2022/06/26 17:00 LFMD 261700Z AUTO 06005KT 340V150 CAVOK 30/15 Q1011 NOSIG
LFMK - CARCASSONNE (Aude)
Mise à jour: 26/06/2022 19:00
couvert
couvert
 Vent W
Vent: W 20 km/h
Température: 18°C
Point de Rosée: 16°C
Humidité: 88%
Barometre: 1013 hPa
Nuage: couvert
Visibilité: 10 km
2022/06/26 17:00 LFMK 261700Z AUTO 27011KT 240V300 9999 BKN010 OVC025 18/16 Q1013 TEMPO BKN012 SCT050TCU
 
LFBC - CAZAUX (Gironde)
Mise à jour: 26/06/2022 19:00
couvert
couvert
 Vent NNW
Vent: NNW 6 km/h
Température: 18°C
Point de Rosée: 12°C
Humidité: 68%
Barometre: 1015 hPa
Nuage: couvert
Visibilité: 10 km
2022/06/26 17:00 LFBC 261700Z AUTO 33003KT 300V360 9999 OVC039 18/12 Q1015
LFLB - CHAMBERY (Savoie)
Mise à jour: 26/06/2022 19:00
clair
clair
 Vent NNE
Vent: NNE 15 km/h
Température: 28°C
Humidex: 29°C
Point de Rosée: 18°C
Humidité: 55%
Barometre: 1010 hPa
Visibilité: supérieure à 10 km
2022/06/26 17:00 LFLB 261700Z AUTO 02008KT CAVOK 28/18 Q1010 TEMPO 2000 TSRA BKN020 BKN030CB
 
LFOC - CHATEAUDUN (Eure-et-Loir)
Mise à jour: 11/10/2021 08:00
Pas Actualisé
brume, nuageux
brume, nuageux
 Vent N
Vent: N 9 km/h
Température: 11°C
Point de Rosée: 11°C
Humidité: 100%
Barometre: 1028 hPa
Nuage: nuageux
Visibilité: 3 km
2021/10/11 06:00 LFOC 110600Z AUTO 36005KT 3100 BR BKN005 BKN023 BKN028 11/11 Q1028
LFLX - CHATEAUROUX (Indre)
Mise à jour: 26/06/2022 19:00
faible pluie, orage
faible pluie, orage
 Vent NNE
Vent: NNE 7 km/h
Température: 16°C
Point de Rosée: 15°C
Humidité: 94%
Barometre: 1015 hPa
Nuage: orage
Visibilité: 10 km
2022/06/26 17:00 LFLX 261700Z AUTO 02004KT 9999 -RA FEW009/// BKN015/// BKN029/// ///TCU 16/15 Q1015 TEMPO 4000 RA BKN014 SCT040CB
 
LFRC - CHERBOURG (Manche)
Mise à jour: 26/06/2022 19:00
orage
orage
 Vent ENE
Vent: ENE 13 km/h
Température: 16°C
Point de Rosée: 10°C
Humidité: 68%
Barometre: 1014 hPa
Nuage: orage
Visibilité: 10 km
2022/06/26 17:00 LFRC 261700Z AUTO 07007KT 040V110 9999 FEW030/// SCT042/// BKN050/// ///TCU 16/10 Q1014 TEMPO 21010KT 4000 SHRA
LFLC - CLERMONT (Puy-De-Dôme)
Mise à jour: 26/06/2022 19:00

 Vent N
Vent: N 6 km/h
Visibilité: 5 km
2022/06/26 17:00 LFLC 261700Z AUTO 35003KT 280V030 5000 0750 R26/1200D R08/P2400 +TSRA BCFG BKN009/// OVC016/// ///CB 16/15 Q1014 TEMPO VRB15G25KT 2000 TSRA
 
LFBG - COGNAC (Charente)
Mise à jour: 26/06/2022 19:00
clair
clair
 Vent S
Vent: S 6 km/h
Température: 19°C
Point de Rosée: 11°C
Humidité: 60%
Barometre: 1014 hPa
Visibilité: supérieure à 10 km
2022/06/26 17:00 LFBG 261700Z AUTO 18003KT CAVOK 19/11 Q1014
LFRG - DEAUVILLE (Calvados)
Mise à jour: 26/06/2022 19:00
clair
clair
 Vent NNW
Vent: NNW 7 km/h
Température: 19°C
Point de Rosée: 11°C
Humidité: 60%
Barometre: 1014 hPa
Visibilité: supérieure à 10 km
2022/06/26 17:00 LFRG 261700Z AUTO 34004KT 300V010 CAVOK 19/11 Q1014 TEMPO 21015G25KT 4000 SHRA BKN040TCU
 
LFSD - DIJON (Côte d-Or)
Mise à jour: 26/06/2022 19:00
orage
orage
 Vent N
Vent: N 9 km/h
Température: 18°C
Point de Rosée: 16°C
Humidité: 88%
Barometre: 1013 hPa
Nuage: orage
Visibilité: 10 km
2022/06/26 17:00 LFSD 261700Z AUTO 35005KT 320V030 9999 ///CB 18/16 Q1013
LFRD - DINARD (Ille-et-Vilaine)
Mise à jour: 26/06/2022 19:00
orage
orage
 Vent ENE
Vent: ENE 7 km/h
Température: 18°C
Point de Rosée: 10°C
Humidité: 60%
Barometre: 1014 hPa
Nuage: orage
Visibilité: 10 km
2022/06/26 17:00 LFRD 261700Z AUTO 06004KT 340V090 9999 FEW048/// BKN056/// BKN072/// ///TCU 18/10 Q1014 TEMPO 20015G25KT 4000 SHRA
 
LFGJ - DOLE (Jura)
Mise à jour: 26/06/2022 19:00
orage
orage
 Vent N
Vent: N 20 km/h
Température: 19°C
Point de Rosée: 17°C
Humidité: 88%
Barometre: 1012 hPa
Nuage: orage
Visibilité: 10 km
2022/06/26 17:00 LFGJ 261700Z AUTO 36011KT 320V020 9999 FEW007/// BKN070/// OVC080/// ///CB 19/17 Q1012 TEMPO VRB18G35KT 0800 +TSRAGR BKN008 BKN040CB
FMCZ - DZAOUDZI-PAMANDZI (Mayotte)
Mise à jour: 26/06/2022 19:00
en partie nuageux
en partie nuageux
 Vent S
Vent: S 24 km/h
Température: 25°C
Point de Rosée: 20°C
Humidité: 74%
Barometre: 1018 hPa
Nuage: en partie nuageux
Visibilité: 10 km
2022/06/26 17:00 FMCZ 261700Z AUTO 19013KT 9999 SCT029 25/20 Q1018 NOSIG
 
LFOE - EVREUX (Eure)
Mise à jour: 26/06/2022 19:00
clair
clair
 Vent SW
Vent: SW 13 km/h
Température: 21°C
Point de Rosée: 7°C
Humidité: 40%
Barometre: 1014 hPa
Visibilité: supérieure à 10 km
2022/06/26 17:00 LFOE 261700Z AUTO 22007KT CAVOK 21/07 Q1014 TEMPO 25015G25KT 4000 -SHRA SCT040TCU
LFKF - FIGARI (Corse-du-Sud)
Mise à jour: 26/06/2022 19:00
clair
clair
 Vent E
Vent: E 26 km/h
Température: 27°C
Humidex: 29°C
Point de Rosée: 21°C
Humidité: 70%
Barometre: 1011 hPa
Visibilité: supérieure à 10 km
2022/06/26 17:00 LFKF 261700Z AUTO 08014KT 050V120 CAVOK 27/21 Q1011 BECMG 06015G25KT
 
LFLS - GRENOBLE (Isère)
Mise à jour: 26/06/2022 19:00
nuageux
nuageux
 Vent NNE
Vent: NNE 11 km/h
Température: 26°C
Point de Rosée: 18°C
Humidité: 61%
Barometre: 1011 hPa
Nuage: nuageux
Visibilité: 10 km
2022/06/26 17:00 LFLS 261700Z AUTO 03006KT 350V070 9999 FEW032 SCT039 BKN045 26/18 Q1011 TEMPO VRB15G25KT 2000 TSRA BKN014 BKN035CB
LFTH - HYERES (Var)
Mise à jour: 26/06/2022 19:00
clair
clair
 Vent E
Vent: E 24 km/h
Température: 28°C
Humidex: 29°C
Point de Rosée: 18°C
Humidité: 55%
Barometre: 1010 hPa
Visibilité: supérieure à 10 km
2022/06/26 17:00 LFTH 261700Z AUTO 10013KT CAVOK 28/18 Q1010 NOSIG
 
LFMI - ISTRES Bouches-du-Rhône)
Mise à jour: 26/06/2022 19:00
clair
clair
 Vent SSE
Vent: SSE 31 km/h
Température: 31°C
Humidex: 31°C
Point de Rosée: 16°C
Humidité: 40%
Barometre: 1009 hPa
Visibilité: supérieure à 10 km
2022/06/26 17:00 LFMI 261700Z AUTO 16017KT CAVOK 31/16 Q1009 TEMPO 18017G30KT
LFRI - LA ROCHE SUR YON (Vendée)
Mise à jour: 26/06/2022 19:00
nuageux
nuageux
 Vent W
Vent: W 17 km/h
Température: 20°C
Point de Rosée: 8°C
Humidité: 46%
Barometre: 1015 hPa
Nuage: nuageux
Visibilité: 10 km
2022/06/26 17:00 LFRI 261700Z AUTO 28009KT 240V310 9999 FEW047 BKN110 BKN180 20/08 Q1015 NOSIG
 
LFBH - LA ROCHELLE (Charente-Maritime)
Mise à jour: 26/06/2022 19:00
clair
clair
 Vent WNW
Vent: WNW 22 km/h
Température: 19°C
Point de Rosée: 12°C
Humidité: 64%
Barometre: 1015 hPa
Visibilité: supérieure à 10 km
2022/06/26 17:00 LFBH 261700Z AUTO 30012KT CAVOK 19/12 Q1015 NOSIG
LFRJ - LANDIVISIAU (Finistère)
Mise à jour: 26/06/2022 19:00
nuages épars
nuages épars
 Vent SW
Vent: SW 26 km/h
Température: 17°C
Point de Rosée: 8°C
Humidité: 56%
Barometre: 1014 hPa
Nuage: nuages épars
Visibilité: 10 km
2022/06/26 17:00 LFRJ 261700Z AUTO 23014KT 9999 FEW037 17/08 Q1014
 
LFOV - LAVAL (Mayenne)
Mise à jour: 26/06/2022 19:00
nuageux
nuageux
 Vent SW
Vent: SW 15 km/h
Température: 20°C
Point de Rosée: 8°C
Humidité: 46%
Barometre: 1014 hPa
Nuage: nuageux
Visibilité: 10 km
2022/06/26 17:00 LFOV 261700Z AUTO 23008KT 200V270 9999 FEW048 SCT100 BKN170 20/08 Q1014
LFOH - LE HAVRE (Seine-Maritime)
Mise à jour: 26/06/2022 19:00
clair
clair
 Vent NNE
Vent: NNE 9 km/h
Température: 18°C
Point de Rosée: 9°C
Humidité: 56%
Barometre: 1014 hPa
Visibilité: supérieure à 10 km
2022/06/26 17:00 LFOH 261700Z AUTO 02005KT CAVOK 18/09 Q1014 NOSIG
 
TFFF - LE LAMENTIN (Martinique)
Mise à jour: 26/06/2022 19:00
nuageux
nuageux
 Vent E
Vent: E 31 km/h
Température: 30°C
Humidex: 36°C
Point de Rosée: 25°C
Humidité: 75%
Barometre: 1014 hPa
Nuage: nuageux
Visibilité: 10 km
2022/06/26 17:00 TFFF 261700Z AUTO 09017KT 9999 BKN020 BKN028 BKN036 30/25 Q1014 TEMPO 08020G30KT 1200 TSRA BKN005 BKN012CB BKN015TCU
LFAT - LE TOUQUET (Pas-de-Calais)
Mise à jour: 26/06/2022 19:00
clair
clair
 Vent NNW
Vent: NNW 17 km/h
Température: 19°C
Point de Rosée: 9°C
Humidité: 52%
Barometre: 1014 hPa
Visibilité: supérieure à 10 km
2022/06/26 17:00 LFAT 261700Z AUTO 33009KT CAVOK 19/09 Q1014 NOSIG
 
LFQQ - LILLE (Nord)
Mise à jour: 26/06/2022 19:00
clair
clair
 Vent SSE
Vent: SSE 9 km/h
Température: 21°C
Point de Rosée: 9°C
Humidité: 46%
Barometre: 1014 hPa
Visibilité: supérieure à 10 km
2022/06/26 17:00 LFQQ 261700Z AUTO 15005KT CAVOK 21/09 Q1014 NOSIG
LFBL - LIMOGES (Haute-Vienne)
Mise à jour: 26/06/2022 19:00
orage
orage
 Vent N
Vent: N 7 km/h
Température: 14°C
Point de Rosée: 14°C
Humidité: 100%
Barometre: 1015 hPa
Nuage: orage
Visibilité: 10 km
2022/06/26 17:00 LFBL 261700Z AUTO 35004KT 310V030 9999 OVC006/// ///TCU 14/14 Q1015 BECMG NSC
 
LFRH - LANN BIHOUE (Morbihan)
Mise à jour: 26/06/2022 19:00
en partie nuageux
en partie nuageux
 Vent WSW
Vent: WSW 19 km/h
Température: 18°C
Point de Rosée: 10°C
Humidité: 60%
Barometre: 1014 hPa
Nuage: en partie nuageux
Visibilité: 10 km
2022/06/26 17:00 LFRH 261700Z AUTO 25010KT 210V290 9999 FEW029 SCT190 18/10 Q1014 TEMPO 24015G25KT SCT030CB
LFSX - LUXEUIL (Haute-Saône)
Mise à jour: 26/06/2022 19:00
clair
clair
 Vent NW
Vent: NW 6 km/h
Température: 21°C
Point de Rosée: 17°C
Humidité: 78%
Barometre: 1012 hPa
Visibilité: supérieure à 10 km
2022/06/26 17:00 LFSX 261700Z AUTO 31003KT 290V350 CAVOK 21/17 Q1012
 
LFLY - LYON Bron (Rhône)
Mise à jour: 26/06/2022 19:00
nuageux
nuageux
 Vent NNW
Vent: NNW 15 km/h
Température: 24°C
Point de Rosée: 17°C
Humidité: 65%
Barometre: 1011 hPa
Nuage: nuageux
Visibilité: 10 km
2022/06/26 17:00 LFLY 261700Z AUTO 34008KT 310V010 9999 SCT027 BKN034 BKN250 24/17 Q1011 TEMPO VRB20G35KT 3000 TSRA SCT020 BKN035CB
LFLL - LYON Saint-Exupery (Rhône)
Mise à jour: 26/06/2022 19:00
nuages épars
nuages épars
 Vent NNW
Vent: NNW 17 km/h
Température: 24°C
Point de Rosée: 18°C
Humidité: 69%
Barometre: 1011 hPa
Nuage: nuages épars
Visibilité: 10 km
2022/06/26 17:00 LFLL 261700Z 33009KT 310V010 9999 FEW030 24/18 Q1011 NOSIG
 
LFML - MARSEILLE PROVENCE (Bouches-du-Rhône)
Mise à jour: 26/06/2022 19:00
clair
clair
 Vent S
Vent: S 24 km/h
Température: 32°C
Humidex: 33°C
Point de Rosée: 17°C
Humidité: 41%
Barometre: 1009 hPa
Visibilité: supérieure à 10 km
2022/06/26 17:00 LFML 261700Z AUTO 17013KT CAVOK 32/17 Q1009 TEMPO 18015G30KT
LFJL - METZ-NANCY LORRAINE (Moselle)
Mise à jour: 26/06/2022 19:00
clair
clair
 Vent ENE
Vent: ENE 9 km/h
Température: 19°C
Point de Rosée: 15°C
Humidité: 78%
Barometre: 1015 hPa
Visibilité: supérieure à 10 km
2022/06/26 17:00 LFJL 261700Z AUTO 06005KT CAVOK 19/15 Q1015 TEMPO BKN008 FEW040CB
 
LFBM - MONT DE MARSAN (Landes)
Mise à jour: 26/06/2022 19:00
nuageux
nuageux
 Vent variable
Vent: variable 6 km/h
Température: 17°C
Point de Rosée: 14°C
Humidité: 83%
Barometre: 1015 hPa
Nuage: nuageux
Visibilité: 10 km
2022/06/26 17:00 LFBM 261700Z AUTO VRB03KT 9999 FEW013 SCT031 BKN041 17/14 Q1015 TEMPO 4000 SHRA BKN012 SCT025CB
LFMT - MONTPELLIER (Hérault)
Mise à jour: 26/06/2022 19:00
nuages épars
nuages épars
 Vent S
Vent: S 11 km/h
Température: 27°C
Humidex: 29°C
Point de Rosée: 21°C
Humidité: 70%
Barometre: 1010 hPa
Nuage: nuages épars
Visibilité: 10 km
2022/06/26 17:00 LFMT 261700Z AUTO 18006KT 150V230 9999 FEW017 27/21 Q1010 NOSIG
 
LFRS - NANTES (Loire-Atlantique)
Mise à jour: 26/06/2022 19:00
clair
clair
 Vent W
Vent: W 15 km/h
Température: 21°C
Point de Rosée: 9°C
Humidité: 46%
Barometre: 1014 hPa
Visibilité: supérieure à 10 km
2022/06/26 17:00 LFRS 261700Z AUTO 26008KT 220V290 CAVOK 21/09 Q1014 NOSIG
LFMN - NICE Alpes-Maritimes)
Mise à jour: 26/06/2022 19:00
clair
clair
 Vent E
Vent: E 35 km/h
Température: 28°C
Humidex: 28°C
Point de Rosée: 16°C
Humidité: 48%
Barometre: 1010 hPa
Visibilité: supérieure à 10 km
2022/06/26 17:00 LFMN 261700Z 08019KT CAVOK 28/16 Q1010 NOSIG
 
LFMO - ORANGE (Vaucluse)
Mise à jour: 26/06/2022 19:00
clair
clair
 Vent SW
Vent: SW 26 km/h
Température: 31°C
Point de Rosée: 15°C
Humidité: 38%
Barometre: 1009 hPa
Visibilité: supérieure à 10 km
2022/06/26 17:00 LFMO 261700Z AUTO 23014KT CAVOK 31/15 Q1009 NOSIG
LFPG - PARIS CH. DE-GAULLE (Val d-Oise)
Mise à jour: 26/06/2022 19:00
clair
clair
 Vent SE
Vent: SE 15 km/h, Rafale: 33 km/h
Température: 21°C
Point de Rosée: 10°C
Humidité: 50%
Barometre: 1015 hPa
Visibilité: supérieure à 10 km
2022/06/26 17:00 LFPG 261700Z 13008G18KT 090V160 CAVOK 21/10 Q1015 NOSIG
 
LFPB - PARIS LE BOURGET (Seine-Saint-Denis)
Mise à jour: 26/06/2022 09:00
Pas Actualisé
clair
clair
 Vent variable
Vent: variable 4 km/h
Température: 15°C
Point de Rosée: 11°C
Humidité: 77%
Barometre: 1016 hPa
Visibilité: supérieure à 10 km
2022/06/26 07:00 LFPB 260700Z AUTO VRB02KT CAVOK 15/11 Q1016 NOSIG
LFPO - PARIS ORLY (Val-de-Marne)
Mise à jour: 26/06/2022 19:00
couvert
couvert
 Vent SE
Vent: SE 11 km/h
Température: 20°C
Point de Rosée: 10°C
Humidité: 53%
Barometre: 1014 hPa
Nuage: couvert
Visibilité: 10 km
2022/06/26 17:00 LFPO 261700Z 13006KT 9999 FEW046 OVC070 20/10 Q1014 NOSIG
 
LFBP - PAU (Pyrénées-Atlantiques)
Mise à jour: 26/06/2022 19:00
orage
orage
 Vent N
Vent: N 11 km/h
Température: 16°C
Point de Rosée: 13°C
Humidité: 83%
Barometre: 1015 hPa
Nuage: orage
Visibilité: 10 km
2022/06/26 17:00 LFBP 261700Z AUTO 01006KT 9999 BKN013/// OVC020/// ///TCU 16/13 Q1015 BECMG SCT015 BKN030
LFMP - PERPIGNAN (Pyrénées-Orientales)
Mise à jour: 26/06/2022 19:00
nuageux
nuageux
 Vent NE
Vent: NE 17 km/h
Température: 25°C
Point de Rosée: 20°C
Humidité: 74%
Barometre: 1010 hPa
Nuage: nuageux
Visibilité: 10 km
2022/06/26 17:00 LFMP 261700Z AUTO 04009KT 020V080 9999 BKN020 BKN026 BKN056 25/20 Q1010 BECMG 32015G25KT
 
TFFR - Point à Pitre (Guadeloupe)
Mise à jour: 26/06/2022 19:00
nuageux
nuageux
 Vent E
Vent: E 28 km/h
Température: 30°C
Humidex: 34°C
Point de Rosée: 23°C
Humidité: 66%
Barometre: 1015 hPa
Nuage: nuageux
Visibilité: 10 km
2022/06/26 17:00 TFFR 261700Z AUTO 08015KT 9999 SCT030 BKN036 BKN045 30/23 Q1015 TEMPO 09015G25KT 2000 SHRA SCT008 FEW012CB BKN015TCU
LFBI - POITIERS (Vienne)
Mise à jour: 26/06/2022 19:00
clair
clair
 Vent SE
Vent: SE 7 km/h
Température: 17°C
Point de Rosée: 12°C
Humidité: 73%
Barometre: 1015 hPa
Visibilité: supérieure à 10 km
2022/06/26 17:00 LFBI 261700Z AUTO 13004KT 080V170 CAVOK 17/12 Q1015 TEMPO 3000 SHRA BKN040TCU
 
LFRQ - QUIMPER (Finistère)
Mise à jour: 26/06/2022 19:00
en partie nuageux
en partie nuageux
 Vent WSW
Vent: WSW 17 km/h
Température: 17°C
Point de Rosée: 10°C
Humidité: 64%
Barometre: 1014 hPa
Nuage: en partie nuageux
Visibilité: 10 km
2022/06/26 17:00 LFRQ 261700Z AUTO 25009KT 210V280 9999 FEW031 SCT040 17/10 Q1014 TEMPO 4500 SHRA BKN030TCU
LFRN - RENNES (Ille-et-Vilaine)
Mise à jour: 26/06/2022 19:00
clair
clair
 Vent SSW
Vent: SSW 19 km/h
Température: 21°C
Point de Rosée: 8°C
Humidité: 43%
Barometre: 1014 hPa
Visibilité: supérieure à 10 km
2022/06/26 17:00 LFRN 261700Z AUTO 21010KT CAVOK 21/08 Q1014 TEMPO SHRA BKN050TCU
 
LFCR - RODEZ (Aveyron)
Mise à jour: 26/06/2022 19:00
couvert
couvert
 Vent WNW
Vent: WNW 19 km/h
Température: 16°C
Point de Rosée: 16°C
Humidité: 100%
Barometre: 1013 hPa
Nuage: couvert
Visibilité: 10 km
2022/06/26 17:00 LFCR 261700Z AUTO 30010KT 9999 OVC003 16/16 Q1013 TEMPO 3000 RA BKN005 FEW040CB
LFOP - ROUEN (Seine-Maritime)
Mise à jour: 26/06/2022 19:00
clair
clair
 Vent SSW
Vent: SSW 19 km/h
Température: 21°C
Point de Rosée: 7°C
Humidité: 40%
Barometre: 1014 hPa
Visibilité: supérieure à 10 km
2022/06/26 17:00 LFOP 261700Z AUTO 20010KT CAVOK 21/07 Q1014 NOSIG
 
LFRT - SAINT-BRIEUC (Côtes d-Armor)
Mise à jour: 26/06/2022 19:00
orage
orage
 Vent N
Vent: N 13 km/h
Température: 16°C
Point de Rosée: 12°C
Humidité: 77%
Barometre: 1014 hPa
Nuage: orage
Visibilité: 10 km
2022/06/26 17:00 LFRT 261700Z AUTO 35007KT 9999 FEW041/// BKN049/// BKN062/// ///CB 16/12 Q1014
FMEE - Saint-Denis (Réunion)
Mise à jour: 26/06/2022 19:00
clair
clair
 Vent S
Vent: S 13 km/h
Température: 17°C
Point de Rosée: 13°C
Humidité: 77%
Barometre: 1022 hPa
Nuage: clair
Visibilité: 10 km
2022/06/26 17:00 FMEE 261700Z AUTO 18007KT 9999 NCD 17/13 Q1022 NOSIG
 
LFMH - SAINT-ETIENNE (Loire)
Mise à jour: 26/06/2022 19:00
couvert
couvert
 Vent NW
Vent: NW 9 km/h
Température: 17°C
Point de Rosée: 15°C
Humidité: 88%
Barometre: 1013 hPa
Nuage: couvert
Visibilité: 10 km
2022/06/26 17:00 LFMH 261700Z AUTO 32005KT 290V350 9999 SCT008 OVC013 17/15 Q1013
LFRZ - SAINT-NAZAIRE (Loire-Atlantique)
Mise à jour: 26/06/2022 19:00
nuages épars
nuages épars
 Vent WSW
Vent: WSW 20 km/h
Température: 19°C
Point de Rosée: 10°C
Humidité: 56%
Barometre: 1014 hPa
Nuage: nuages épars
Visibilité: 10 km
2022/06/26 17:00 LFRZ 261700Z AUTO 25011KT 230V290 9999 FEW042 19/10 Q1014 TEMPO 4500 -SHRA BKN030TCU
 
LFVP - SAINT-PIERRE (St Pierre et Miquelon)
Mise à jour: 26/06/2022 19:00
brouillard, en partie nuageux
brouillard, en partie nuageux
 Vent SW
Vent: SW 17 km/h
Température: 14°C
Point de Rosée: 12°C
Humidité: 88%
Barometre: 1022 hPa
Nuage: en partie nuageux
Visibilité: 1 km
2022/06/26 17:00 LFVP 261700Z 23009KT 0600 R26/P2000 FG SCT001 SCT250 14/12 Q1022 NOSIG
LFLN - SAINT-YAN (Saône-et-Loire)
Mise à jour: 26/06/2022 19:00
faible pluie, orage
faible pluie, orage
 Vent NNE
Vent: NNE 17 km/h
Température: 15°C
Point de Rosée: 15°C
Humidité: 100%
Barometre: 1013 hPa
Nuage: orage
Visibilité: 8 km
2022/06/26 17:00 LFLN 261700Z AUTO 03009KT 330V060 8000 -RA FEW006/// SCT066/// OVC078/// ///CB 15/15 Q1013 TEMPO 2000 TSRA BKN003 BKN025 SCT050CB
 
LFMY - SALON (Bouches-du-Rhône)
Mise à jour: 26/06/2022 19:00
clair
clair
 Vent S
Vent: S 19 km/h
Température: 31°C
Humidex: 32°C
Point de Rosée: 17°C
Humidité: 43%
Barometre: 1009 hPa
Visibilité: supérieure à 10 km
2022/06/26 17:00 LFMY 261700Z AUTO 19010KT 140V230 CAVOK 31/17 Q1009
SOCA - MATURY (Guyane)
Mise à jour: 26/06/2022 19:00
clair
clair
 Vent ENE
Vent: ENE 9 km/h
Température: 31°C
Humidex: 37°C
Point de Rosée: 24°C
Humidité: 66%
Barometre: 1010 hPa
Visibilité: supérieure à 10 km
2022/06/26 17:00 SOCA 261700Z AUTO 06005KT 360V100 CAVOK 31/24 Q1010 TEMPO 2000 SHRA SCT008 FEW012CB BKN014TCU
 
LFKS - SOLENZARA (Corse-du-Sud)
Mise à jour: 26/06/2022 19:00
clair
clair
 Vent SE
Vent: SE 9 km/h
Température: 27°C
Humidex: 30°C
Point de Rosée: 23°C
Humidité: 79%
Barometre: 1012 hPa
Visibilité: supérieure à 10 km
2022/06/26 17:00 LFKS 261700Z AUTO 14005KT 110V180 CAVOK 27/23 Q1012
LFST - STRASBOURG (Bas-Rhin)
Mise à jour: 26/06/2022 19:00
en partie nuageux
en partie nuageux
 Vent NNW
Vent: NNW 15 km/h
Température: 25°C
Point de Rosée: 17°C
Humidité: 61%
Barometre: 1013 hPa
Nuage: en partie nuageux
Visibilité: 10 km
2022/06/26 17:00 LFST 261700Z AUTO 33008KT 9999 FEW045 SCT130 25/17 Q1013 TEMPO 4000 SHRA FEW040CB
 
LFBT - TARBES - LOURDES (Hautes-Pyrénées)
Mise à jour: 26/06/2022 19:00
faible pluie, brume, orage
faible pluie, brume, orage
 Vent NNW
Vent: NNW 13 km/h
Température: 14°C
Point de Rosée: 13°C
Humidité: 94%
Barometre: 1015 hPa
Nuage: orage
Visibilité: 4 km
2022/06/26 17:00 LFBT 261700Z AUTO 34007KT 4300 -RA BR BKN005/// OVC013/// ///TCU 14/13 Q1015 TEMPO SHRA BKN008 SCT015CB BKN025TCU
LFBO - TOULOUSE BLAGNAC (Haute-Garonne)
Mise à jour: 26/06/2022 19:00
couvert
couvert
 Vent W
Vent: W 15 km/h
Température: 18°C
Point de Rosée: 14°C
Humidité: 78%
Barometre: 1013 hPa
Nuage: couvert
Visibilité: 10 km
2022/06/26 17:00 LFBO 261700Z AUTO 28008KT 9999 BKN023 OVC029 18/14 Q1013 TEMPO 4500 SHRA SCT030CB
 
LFOT - TOURS (Indre-et-Loire)
Mise à jour: 26/06/2022 19:00
clair
clair
 Vent SE
Vent: SE 17 km/h
Température: 19°C
Point de Rosée: 13°C
Humidité: 68%
Barometre: 1014 hPa
Visibilité: supérieure à 10 km
2022/06/26 17:00 LFOT 261700Z AUTO 13009KT CAVOK 19/13 Q1014 TEMPO SCT040TCU
LFPN - TOUSSUS-LE-NOBLE (Yvelines)
Mise à jour: 26/06/2022 19:00
clair
clair
 Vent SSE
Vent: SSE 11 km/h
Température: 20°C
Point de Rosée: 10°C
Humidité: 53%
Barometre: 1014 hPa
Visibilité: supérieure à 10 km
2022/06/26 17:00 LFPN 261700Z AUTO 15006KT 120V200 CAVOK 20/10 Q1014 NOSIG
 
LFQB - TROYES (Aube)
Mise à jour: 26/06/2022 19:00
faible pluie, orage
faible pluie, orage
 Vent NNE
Vent: NNE 7 km/h
Température: 18°C
Point de Rosée: 14°C
Humidité: 78%
Barometre: 1015 hPa
Nuage: orage
Visibilité: 10 km
2022/06/26 17:00 LFQB 261700Z AUTO 02004KT 9999 -RA FEW046/// BKN098/// OVC110/// ///TCU 18/14 Q1015
LFSI - SAINT-DIZIER (Haute-Marne)
Mise à jour: 26/06/2022 19:00
pluie, orage
pluie, orage
 Vent N
Vent: N 6 km/h
Température: 18°C
Point de Rosée: 15°C
Humidité: 83%
Barometre: 1015 hPa
Nuage: orage
Visibilité: 10 km
2022/06/26 17:00 LFSI 261700Z AUTO 35003KT 9999 RA BKN016/// BKN027/// BKN032/// ///CB 18/15 Q1015

Metar display script from Saratoga-Weather.org